createdAt,value
2023-03-01T00:09:46.975Z,81.65
2023-03-01T00:24:49.049Z,77.85
2023-03-01T00:39:51.191Z,78.57
2023-03-01T00:54:54.060Z,79.10
2023-03-01T01:09:56.283Z,79.07
2023-03-01T01:24:58.374Z,78.22
2023-03-01T01:40:04.775Z,80.10
2023-03-01T01:55:22.015Z,86.60
2023-03-01T02:10:25.671Z,86.40
2023-03-01T02:25:36.740Z,77.60
2023-03-01T02:40:40.309Z,80.55
2023-03-01T02:55:42.359Z,95.97
2023-03-01T03:10:44.512Z,79.97
2023-03-01T03:25:48.640Z,82.70
2023-03-01T03:40:53.023Z,81.95
2023-03-01T03:55:55.604Z,91.60
2023-03-01T04:11:25.705Z,77.65
2023-03-01T04:26:28.415Z,87.55
2023-03-01T04:41:30.429Z,108.35
2023-03-01T04:56:32.729Z,88.30
2023-03-01T05:11:36.921Z,86.72
2023-03-01T05:26:41.624Z,81.03
2023-03-01T05:41:43.680Z,78.35
2023-03-01T05:56:46.274Z,93.03
2023-03-01T06:11:48.170Z,90.68
2023-03-01T06:26:50.166Z,104.30
2023-03-01T06:41:53.715Z,77.38
2023-03-01T06:56:56.154Z,100.15
2023-03-01T07:11:59.024Z,92.82
2023-03-01T07:27:00.948Z,115.43
2023-03-01T07:42:02.930Z,90.53
2023-03-01T07:57:04.977Z,101.55
2023-03-01T08:12:07.253Z,83.72
2023-03-01T08:27:09.957Z,72.88
2023-03-01T08:42:11.895Z,44.80
2023-03-01T08:57:13.891Z,64.72
2023-03-01T09:12:15.931Z,42.70
2023-03-01T09:27:20.043Z,35.33
2023-03-01T09:42:22.508Z,47.30
2023-03-01T09:57:51.665Z,42.13
2023-03-01T10:12:54.918Z,47.65
2023-03-01T10:28:05.267Z,45.00
2023-03-01T10:43:07.371Z,43.10
2023-03-01T10:58:18.508Z,53.28
2023-03-01T11:13:21.314Z,35.30
2023-03-01T11:28:24.078Z,47.00
2023-03-01T11:43:34.859Z,39.60
2023-03-01T11:59:08.210Z,36.50
2023-03-01T12:14:34.334Z,25.63
2023-03-01T12:29:59.158Z,23.50
2023-03-01T12:45:20.043Z,31.00
2023-03-01T13:01:01.838Z,25.25
2023-03-01T13:16:30.103Z,23.27
2023-03-01T13:31:32.414Z,16.80
2023-03-01T13:46:35.141Z,14.90
2023-03-01T14:01:37.987Z,14.40
2023-03-01T14:16:46.885Z,14.48
2023-03-01T14:31:53.243Z,15.93
2023-03-01T14:46:57.109Z,15.35
2023-03-01T15:02:00.303Z,21.45
2023-03-01T15:17:02.245Z,22.80
2023-03-01T15:32:07.720Z,19.30
2023-03-01T15:47:29.856Z,16.88
2023-03-01T16:02:31.790Z,25.98
2023-03-01T16:17:33.761Z,22.10
2023-03-01T16:32:40.522Z,30.27
2023-03-01T16:47:43.063Z,28.17
2023-03-01T17:02:45.463Z,29.33
2023-03-01T17:17:51.887Z,35.13
2023-03-01T17:32:55.875Z,32.65
2023-03-01T17:47:58.064Z,37.67
2023-03-01T18:03:00.144Z,34.30
2023-03-01T18:18:02.289Z,39.55
2023-03-01T18:33:04.377Z,38.22
2023-03-01T18:48:06.449Z,41.88
2023-03-01T19:03:08.932Z,46.47
2023-03-01T19:18:10.936Z,46.92
2023-03-01T19:33:25.472Z,67.50
2023-03-01T20:04:34.271Z,67.72
2023-03-01T20:19:38.967Z,69.90
2023-03-01T20:34:48.671Z,78.35
2023-03-01T20:49:52.183Z,105.38
2023-03-01T21:04:54.435Z,92.13
2023-03-01T21:19:58.654Z,127.05
2023-03-01T21:35:00.850Z,147.65
2023-03-01T21:50:02.796Z,165.60
2023-03-01T22:05:04.968Z,174.93
2023-03-01T22:20:07.702Z,147.45
2023-03-01T22:35:10.047Z,94.97
2023-03-01T22:50:15.229Z,100.78
2023-03-01T23:05:17.213Z,105.15
2023-03-01T23:20:19.331Z,96.00
2023-03-01T23:35:21.344Z,110.43
2023-03-01T23:50:24.410Z,134.27
